sensor_id;sensor_type;location;lat;lon;timestamp;pressure;altitude;pressure_sealevel;temperature;humidity
6514;BME280;3290;47.716;9.070;2023-02-28T00:02:17;97305.25;;;1.82;74.67
6514;BME280;3290;47.716;9.070;2023-02-28T00:04:43;97305.94;;;1.67;74.43
6514;BME280;3290;47.716;9.070;2023-02-28T00:07:09;97298.84;;;1.69;74.17
6514;BME280;3290;47.716;9.070;2023-02-28T00:09:34;97304.13;;;1.85;73.95
6514;BME280;3290;47.716;9.070;2023-02-28T00:11:59;97292.94;;;1.76;74.11
6514;BME280;3290;47.716;9.070;2023-02-28T00:14:25;97301.41;;;1.61;74.95
6514;BME280;3290;47.716;9.070;2023-02-28T00:16:50;97309.78;;;1.63;75.09
6514;BME280;3290;47.716;9.070;2023-02-28T00:19:15;97294.50;;;1.95;73.78
6514;BME280;3290;47.716;9.070;2023-02-28T00:21:41;97303.50;;;1.65;74.13
6514;BME280;3290;47.716;9.070;2023-02-28T00:24:06;97305.06;;;1.84;74.43
6514;BME280;3290;47.716;9.070;2023-02-28T00:26:32;97299.91;;;1.84;74.13
6514;BME280;3290;47.716;9.070;2023-02-28T00:28:57;97304.00;;;1.69;74.72
6514;BME280;3290;47.716;9.070;2023-02-28T00:31:23;97299.91;;;1.58;73.80
6514;BME280;3290;47.716;9.070;2023-02-28T00:33:48;97296.44;;;1.50;75.07
6514;BME280;3290;47.716;9.070;2023-02-28T00:36:14;97296.88;;;1.63;74.41
6514;BME280;3290;47.716;9.070;2023-02-28T00:38:40;97295.09;;;1.63;74.48
6514;BME280;3290;47.716;9.070;2023-02-28T00:41:06;97295.84;;;1.73;74.52
6514;BME280;3290;47.716;9.070;2023-02-28T00:43:33;97286.72;;;1.61;74.66
6514;BME280;3290;47.716;9.070;2023-02-28T00:46:00;97284.88;;;1.79;74.57
6514;BME280;3290;47.716;9.070;2023-02-28T00:48:25;97298.75;;;1.78;74.61
6514;BME280;3290;47.716;9.070;2023-02-28T00:50:50;97291.66;;;1.55;75.01
6514;BME280;3290;47.716;9.070;2023-02-28T00:53:16;97285.03;;;1.53;74.28
6514;BME280;3290;47.716;9.070;2023-02-28T00:55:41;97288.13;;;1.81;74.41
6514;BME280;3290;47.716;9.070;2023-02-28T00:58:07;97295.81;;;1.98;73.70
6514;BME280;3290;47.716;9.070;2023-02-28T01:00:32;97283.69;;;1.99;73.26
6514;BME280;3290;47.716;9.070;2023-02-28T01:02:57;97284.03;;;1.71;74.34
6514;BME280;3290;47.716;9.070;2023-02-28T01:05:23;97285.78;;;1.96;73.49
6514;BME280;3290;47.716;9.070;2023-02-28T01:07:48;97286.31;;;1.74;73.83
6514;BME280;3290;47.716;9.070;2023-02-28T01:10:14;97286.31;;;1.74;73.67
6514;BME280;3290;47.716;9.070;2023-02-28T01:12:39;97284.94;;;1.62;74.63
6514;BME280;3290;47.716;9.070;2023-02-28T01:15:05;97288.53;;;1.69;74.37
6514;BME280;3290;47.716;9.070;2023-02-28T01:17:30;97276.41;;;1.44;75.43
6514;BME280;3290;47.716;9.070;2023-02-28T01:19:56;97281.84;;;1.58;74.95
6514;BME280;3290;47.716;9.070;2023-02-28T01:22:21;97274.34;;;1.73;74.52
6514;BME280;3290;47.716;9.070;2023-02-28T01:24:47;97281.25;;;1.90;73.69
6514;BME280;3290;47.716;9.070;2023-02-28T01:27:13;97282.53;;;1.94;74.03
6514;BME280;3290;47.716;9.070;2023-02-28T01:29:38;97286.78;;;1.52;74.88
6514;BME280;3290;47.716;9.070;2023-02-28T01:32:04;97291.41;;;1.66;74.80
6514;BME280;3290;47.716;9.070;2023-02-28T01:34:29;97282.75;;;1.75;74.05
6514;BME280;3290;47.716;9.070;2023-02-28T01:36:54;97289.28;;;1.87;73.83
6514;BME280;3290;47.716;9.070;2023-02-28T01:39:20;97283.16;;;1.88;74.51
6514;BME280;3290;47.716;9.070;2023-02-28T01:41:45;97283.63;;;1.58;74.80
6514;BME280;3290;47.716;9.070;2023-02-28T01:47:14;97284.25;;;1.85;73.42
6514;BME280;3290;47.716;9.070;2023-02-28T01:49:40;97284.50;;;1.66;74.39
6514;BME280;3290;47.716;9.070;2023-02-28T01:52:06;97287.41;;;1.71;74.53
6514;BME280;3290;47.716;9.070;2023-02-28T01:54:34;97285.47;;;1.48;75.08
6514;BME280;3290;47.716;9.070;2023-02-28T01:57:28;97279.44;;;1.82;74.80
6514;BME280;3290;47.716;9.070;2023-02-28T01:59:58;97285.78;;;1.70;73.98
6514;BME280;3290;47.716;9.070;2023-02-28T02:02:26;97287.72;;;1.68;74.06
6514;BME280;3290;47.716;9.070;2023-02-28T02:04:59;97285.59;;;1.89;73.77
6514;BME280;3290;47.716;9.070;2023-02-28T02:07:29;97285.09;;;1.86;73.51
6514;BME280;3290;47.716;9.070;2023-02-28T02:10:10;97276.22;;;1.88;73.81
6514;BME280;3290;47.716;9.070;2023-02-28T02:18:22;97276.88;;;1.65;74.86
6514;BME280;3290;47.716;9.070;2023-02-28T02:26:52;97271.31;;;1.77;74.24
6514;BME280;3290;47.716;9.070;2023-02-28T02:30:08;97264.56;;;1.59;74.21
6514;BME280;3290;47.716;9.070;2023-02-28T02:32:49;97279.50;;;1.73;74.43
6514;BME280;3290;47.716;9.070;2023-02-28T02:35:24;97269.25;;;1.81;73.71
6514;BME280;3290;47.716;9.070;2023-02-28T02:40:29;97273.31;;;1.66;74.00
6514;BME280;3290;47.716;9.070;2023-02-28T02:42:56;97276.56;;;1.68;73.25
6514;BME280;3290;47.716;9.070;2023-02-28T02:45:31;97277.47;;;1.59;74.24
6514;BME280;3290;47.716;9.070;2023-02-28T02:48:05;97273.66;;;1.63;73.93
6514;BME280;3290;47.716;9.070;2023-02-28T02:50:37;97282.41;;;1.70;73.28
6514;BME280;3290;47.716;9.070;2023-02-28T02:53:04;97278.88;;;1.54;73.22
6514;BME280;3290;47.716;9.070;2023-02-28T02:55:34;97279.50;;;1.73;72.90
6514;BME280;3290;47.716;9.070;2023-02-28T02:58:05;97273.25;;;1.75;73.45
6514;BME280;3290;47.716;9.070;2023-02-28T03:00:37;97287.63;;;1.78;72.67
6514;BME280;3290;47.716;9.070;2023-02-28T03:03:07;97274.53;;;2.04;72.25
6514;BME280;3290;47.716;9.070;2023-02-28T03:05:51;97274.66;;;1.70;72.82
6514;BME280;3290;47.716;9.070;2023-02-28T03:08:17;97270.19;;;1.55;73.18
6514;BME280;3290;47.716;9.070;2023-02-28T03:10:45;97272.50;;;1.91;72.45
6514;BME280;3290;47.716;9.070;2023-02-28T03:21:41;97271.72;;;1.65;72.98
6514;BME280;3290;47.716;9.070;2023-02-28T03:24:15;97267.09;;;1.51;72.61
6514;BME280;3290;47.716;9.070;2023-02-28T03:26:46;97262.91;;;1.75;72.81
6514;BME280;3290;47.716;9.070;2023-02-28T03:29:34;97263.91;;;1.57;72.99
6514;BME280;3290;47.716;9.070;2023-02-28T03:32:21;97263.47;;;1.61;72.82
6514;BME280;3290;47.716;9.070;2023-02-28T03:34:56;97261.28;;;1.74;72.39
6514;BME280;3290;47.716;9.070;2023-02-28T03:37:25;97254.91;;;1.86;72.07
6514;BME280;3290;47.716;9.070;2023-02-28T03:40:02;97251.19;;;1.89;72.22
6514;BME280;3290;47.716;9.070;2023-02-28T03:42:34;97249.63;;;1.96;71.52
6514;BME280;3290;47.716;9.070;2023-02-28T03:50:27;97264.00;;;1.73;72.23
6514;BME280;3290;47.716;9.070;2023-02-28T03:52:58;97260.28;;;1.93;72.15
6514;BME280;3290;47.716;9.070;2023-02-28T03:55:30;97262.75;;;2.02;71.88
6514;BME280;3290;47.716;9.070;2023-02-28T03:58:15;97270.81;;;1.74;72.61
6514;BME280;3290;47.716;9.070;2023-02-28T04:00:49;97274.78;;;1.86;72.40
6514;BME280;3290;47.716;9.070;2023-02-28T04:03:16;97281.50;;;1.79;72.04
6514;BME280;3290;47.716;9.070;2023-02-28T04:05:52;97280.59;;;1.88;71.81
6514;BME280;3290;47.716;9.070;2023-02-28T04:08:18;97281.25;;;1.90;71.77
6514;BME280;3290;47.716;9.070;2023-02-28T04:10:45;97279.09;;;1.85;72.04
6514;BME280;3290;47.716;9.070;2023-02-28T04:13:13;97285.09;;;1.86;72.16
6514;BME280;3290;47.716;9.070;2023-02-28T04:15:38;97285.78;;;1.96;71.15
6514;BME280;3290;47.716;9.070;2023-02-28T04:18:04;97281.13;;;1.99;72.09
6514;BME280;3290;47.716;9.070;2023-02-28T04:20:29;97278.16;;;1.86;71.71
6514;BME280;3290;47.716;9.070;2023-02-28T04:22:54;97280.34;;;1.73;72.22
6514;BME280;3290;47.716;9.070;2023-02-28T04:25:20;97285.31;;;1.75;72.35
6514;BME280;3290;47.716;9.070;2023-02-28T04:27:45;97278.50;;;1.91;71.63
6514;BME280;3290;47.716;9.070;2023-02-28T04:30:11;97273.31;;;2.16;71.14
6514;BME280;3290;47.716;9.070;2023-02-28T04:32:37;97275.44;;;2.21;71.27
6514;BME280;3290;47.716;9.070;2023-02-28T04:35:02;97280.09;;;2.17;71.05
6514;BME280;3290;47.716;9.070;2023-02-28T04:37:28;97281.94;;;1.99;71.30
6514;BME280;3290;47.716;9.070;2023-02-28T04:39:53;97277.03;;;1.89;72.25
6514;BME280;3290;47.716;9.070;2023-02-28T04:42:19;97280.06;;;2.09;70.61
6514;BME280;3290;47.716;9.070;2023-02-28T04:44:45;97282.19;;;2.14;70.68
6514;BME280;3290;47.716;9.070;2023-02-28T04:47:10;97281.44;;;1.96;70.95
6514;BME280;3290;47.716;9.070;2023-02-28T04:49:35;97287.06;;;1.66;72.11
6514;BME280;3290;47.716;9.070;2023-02-28T04:52:01;97280.84;;;1.77;71.88
6514;BME280;3290;47.716;9.070;2023-02-28T04:54:27;97285.66;;;1.72;71.76
6514;BME280;3290;47.716;9.070;2023-02-28T04:56:53;97288.81;;;1.66;71.57
6514;BME280;3290;47.716;9.070;2023-02-28T04:59:19;97298.19;;;1.67;71.04
6514;BME280;3290;47.716;9.070;2023-02-28T05:01:47;97305.84;;;1.76;71.03
6514;BME280;3290;47.716;9.070;2023-02-28T05:04:12;97298.16;;;1.84;71.07
6514;BME280;3290;47.716;9.070;2023-02-28T05:06:38;97299.47;;;1.63;70.70
6514;BME280;3290;47.716;9.070;2023-02-28T05:09:03;97300.78;;;1.67;70.93
6514;BME280;3290;47.716;9.070;2023-02-28T05:11:31;97298.66;;;1.88;70.15
6514;BME280;3290;47.716;9.070;2023-02-28T05:14:03;97301.19;;;1.80;70.10
6514;BME280;3290;47.716;9.070;2023-02-28T05:16:30;97304.75;;;1.79;69.99
6514;BME280;3290;47.716;9.070;2023-02-28T05:18:56;97308.44;;;1.59;70.63
6514;BME280;3290;47.716;9.070;2023-02-28T05:21:36;97305.53;;;1.79;69.82
6514;BME280;3290;47.716;9.070;2023-02-28T05:24:06;97305.41;;;1.81;69.66
6514;BME280;3290;47.716;9.070;2023-02-28T05:26:38;97303.75;;;1.55;70.84
6514;BME280;3290;47.716;9.070;2023-02-28T05:29:04;97304.53;;;1.72;70.44
6514;BME280;3290;47.716;9.070;2023-02-28T05:31:30;97318.13;;;1.40;70.93
6514;BME280;3290;47.716;9.070;2023-02-28T05:33:55;97309.88;;;1.54;70.73
6514;BME280;3290;47.716;9.070;2023-02-28T05:36:21;97314.44;;;1.85;70.12
6514;BME280;3290;47.716;9.070;2023-02-28T05:38:48;97309.38;;;1.33;71.60
6514;BME280;3290;47.716;9.070;2023-02-28T05:41:13;97308.03;;;1.46;70.53
6514;BME280;3290;47.716;9.070;2023-02-28T05:43:38;97312.31;;;1.55;70.46
6514;BME280;3290;47.716;9.070;2023-02-28T05:46:08;97315.84;;;1.54;70.54
6514;BME280;3290;47.716;9.070;2023-02-28T05:48:35;97319.84;;;1.31;71.35
6514;BME280;3290;47.716;9.070;2023-02-28T05:51:02;97324.53;;;1.53;70.56
6514;BME280;3290;47.716;9.070;2023-02-28T05:53:28;97333.56;;;1.49;71.53
6514;BME280;3290;47.716;9.070;2023-02-28T05:55:54;97335.41;;;1.22;71.58
6514;BME280;3290;47.716;9.070;2023-02-28T05:58:20;97326.75;;;1.48;71.13
6514;BME280;3290;47.716;9.070;2023-02-28T06:00:45;97327.75;;;1.47;71.42
6514;BME280;3290;47.716;9.070;2023-02-28T06:03:11;97338.09;;;1.55;70.79
6514;BME280;3290;47.716;9.070;2023-02-28T06:05:36;97336.13;;;1.49;71.02
6514;BME280;3290;47.716;9.070;2023-02-28T06:08:01;97334.94;;;1.61;70.64
6514;BME280;3290;47.716;9.070;2023-02-28T06:10:27;97340.84;;;1.54;70.76
6514;BME280;3290;47.716;9.070;2023-02-28T06:12:52;97347.25;;;1.32;71.33
6514;BME280;3290;47.716;9.070;2023-02-28T06:15:18;97338.94;;;1.21;71.72
6514;BME280;3290;47.716;9.070;2023-02-28T06:17:44;97340.28;;;1.42;71.01
6514;BME280;3290;47.716;9.070;2023-02-28T06:20:10;97347.25;;;1.67;70.57
6514;BME280;3290;47.716;9.070;2023-02-28T06:22:38;97349.53;;;1.70;70.60
6514;BME280;3290;47.716;9.070;2023-02-28T06:25:05;97355.22;;;1.56;71.48
6514;BME280;3290;47.716;9.070;2023-02-28T06:27:32;97360.47;;;1.47;72.03
6514;BME280;3290;47.716;9.070;2023-02-28T06:29:57;97357.34;;;1.78;70.82
6514;BME280;3290;47.716;9.070;2023-02-28T06:32:23;97354.72;;;1.95;69.54
6514;BME280;3290;47.716;9.070;2023-02-28T06:34:48;97361.72;;;2.02;69.86
6514;BME280;3290;47.716;9.070;2023-02-28T06:37:15;97358.19;;;1.61;70.55
6514;BME280;3290;47.716;9.070;2023-02-28T06:39:41;97371.16;;;1.69;70.09
6514;BME280;3290;47.716;9.070;2023-02-28T06:42:06;97372.06;;;1.85;70.48
6514;BME280;3290;47.716;9.070;2023-02-28T06:44:31;97373.13;;;1.75;70.67
6514;BME280;3290;47.716;9.070;2023-02-28T06:47:01;97379.28;;;1.57;71.60
6514;BME280;3290;47.716;9.070;2023-02-28T06:49:29;97375.81;;;1.91;70.36
6514;BME280;3290;47.716;9.070;2023-02-28T06:51:54;97380.94;;;1.83;70.04
6514;BME280;3290;47.716;9.070;2023-02-28T06:54:20;97383.41;;;1.67;70.03
6514;BME280;3290;47.716;9.070;2023-02-28T06:56:45;97386.84;;;1.93;70.21
6514;BME280;3290;47.716;9.070;2023-02-28T06:59:12;97388.69;;;1.83;70.01
6514;BME280;3290;47.716;9.070;2023-02-28T07:01:37;97386.41;;;1.45;70.53
6514;BME280;3290;47.716;9.070;2023-02-28T07:04:04;97389.31;;;1.77;70.66
6514;BME280;3290;47.716;9.070;2023-02-28T07:06:30;97397.38;;;1.82;70.65
6514;BME280;3290;47.716;9.070;2023-02-28T07:08:56;97406.91;;;1.81;70.78
6514;BME280;3290;47.716;9.070;2023-02-28T07:11:23;97407.50;;;1.93;70.15
6514;BME280;3290;47.716;9.070;2023-02-28T07:13:51;97405.22;;;1.72;70.32
6514;BME280;3290;47.716;9.070;2023-02-28T07:16:17;97412.06;;;1.81;70.14
6514;BME280;3290;47.716;9.070;2023-02-28T07:18:42;97410.81;;;1.85;69.92
6514;BME280;3290;47.716;9.070;2023-02-28T07:21:10;97408.09;;;1.87;70.21
6514;BME280;3290;47.716;9.070;2023-02-28T07:23:38;97417.34;;;1.72;71.02
6514;BME280;3290;47.716;9.070;2023-02-28T07:26:04;97410.28;;;1.82;70.61
6514;BME280;3290;47.716;9.070;2023-02-28T07:28:30;97414.28;;;1.76;69.79
6514;BME280;3290;47.716;9.070;2023-02-28T07:30:56;97410.91;;;1.58;70.59
6514;BME280;3290;47.716;9.070;2023-02-28T07:33:21;97417.34;;;1.72;70.62
6514;BME280;3290;47.716;9.070;2023-02-28T07:35:46;97418.41;;;1.69;70.40
6514;BME280;3290;47.716;9.070;2023-02-28T07:38:12;97418.13;;;1.72;71.21
6514;BME280;3290;47.716;9.070;2023-02-28T07:40:39;97422.19;;;1.75;70.92
6514;BME280;3290;47.716;9.070;2023-02-28T07:43:04;97422.81;;;2.11;76.58
6514;BME280;3290;47.716;9.070;2023-02-28T07:45:30;97422.28;;;2.08;70.48
6514;BME280;3290;47.716;9.070;2023-02-28T07:47:56;97425.97;;;1.80;70.79
6514;BME280;3290;47.716;9.070;2023-02-28T07:50:22;97420.56;;;1.74;70.74
6514;BME280;3290;47.716;9.070;2023-02-28T07:52:47;97426.00;;;2.05;70.37
6514;BME280;3290;47.716;9.070;2023-02-28T07:55:13;97425.25;;;1.96;70.70
6514;BME280;3290;47.716;9.070;2023-02-28T07:57:40;97428.38;;;1.82;70.86
6514;BME280;3290;47.716;9.070;2023-02-28T08:00:08;97422.56;;;1.80;71.37
6514;BME280;3290;47.716;9.070;2023-02-28T08:02:35;97421.22;;;1.76;70.97
6514;BME280;3290;47.716;9.070;2023-02-28T08:05:00;97425.50;;;1.85;71.04
6514;BME280;3290;47.716;9.070;2023-02-28T08:07:26;97422.50;;;1.72;71.95
6514;BME280;3290;47.716;9.070;2023-02-28T08:09:52;97436.34;;;1.71;71.68
6514;BME280;3290;47.716;9.070;2023-02-28T08:12:17;97430.66;;;1.85;72.21
6514;BME280;3290;47.716;9.070;2023-02-28T08:14:43;97437.81;;;1.91;71.46
6514;BME280;3290;47.716;9.070;2023-02-28T08:17:09;97434.00;;;1.95;70.98
6514;BME280;3290;47.716;9.070;2023-02-28T08:19:35;97434.69;;;2.04;71.30
6514;BME280;3290;47.716;9.070;2023-02-28T08:22:00;97430.00;;;1.83;71.08
6514;BME280;3290;47.716;9.070;2023-02-28T08:24:25;97434.13;;;2.10;70.21
6514;BME280;3290;47.716;9.070;2023-02-28T08:26:51;97441.13;;;2.18;71.14
6514;BME280;3290;47.716;9.070;2023-02-28T08:29:16;97447.81;;;2.28;70.36
6514;BME280;3290;47.716;9.070;2023-02-28T08:31:42;97443.84;;;2.16;70.23
6514;BME280;3290;47.716;9.070;2023-02-28T08:34:13;97436.34;;;2.05;70.95
6514;BME280;3290;47.716;9.070;2023-02-28T08:36:39;97444.25;;;2.29;70.15
6514;BME280;3290;47.716;9.070;2023-02-28T08:39:05;97444.47;;;2.36;70.20
6514;BME280;3290;47.716;9.070;2023-02-28T08:41:31;97448.84;;;2.35;68.96
6514;BME280;3290;47.716;9.070;2023-02-28T08:43:57;97448.75;;;2.27;70.25
6514;BME280;3290;47.716;9.070;2023-02-28T08:46:22;97444.78;;;2.58;69.31
6514;BME280;3290;47.716;9.070;2023-02-28T08:48:51;97452.97;;;1.86;69.91
6514;BME280;3290;47.716;9.070;2023-02-28T08:51:18;97445.34;;;2.01;69.77
6514;BME280;3290;47.716;9.070;2023-02-28T08:53:47;97454.19;;;2.16;70.10
6514;BME280;3290;47.716;9.070;2023-02-28T08:56:15;97455.59;;;1.76;70.28
6514;BME280;3290;47.716;9.070;2023-02-28T08:58:42;97464.66;;;1.98;69.93
6514;BME280;3290;47.716;9.070;2023-02-28T09:01:13;97462.03;;;1.72;70.72
6514;BME280;3290;47.716;9.070;2023-02-28T09:03:39;97458.19;;;1.94;70.48
6514;BME280;3290;47.716;9.070;2023-02-28T09:06:09;97457.63;;;1.99;70.50
6514;BME280;3290;47.716;9.070;2023-02-28T09:08:39;97459.38;;;1.82;70.44
6514;BME280;3290;47.716;9.070;2023-02-28T09:11:05;97469.03;;;2.14;69.50
6514;BME280;3290;47.716;9.070;2023-02-28T09:13:31;97472.47;;;2.40;67.86
6514;BME280;3290;47.716;9.070;2023-02-28T09:15:58;97477.50;;;2.24;70.27
6514;BME280;3290;47.716;9.070;2023-02-28T09:18:24;97466.84;;;2.27;69.28
6514;BME280;3290;47.716;9.070;2023-02-28T09:20:50;97478.47;;;2.06;69.14
6514;BME280;3290;47.716;9.070;2023-02-28T09:23:15;97473.66;;;2.28;68.72
6514;BME280;3290;47.716;9.070;2023-02-28T09:25:48;97474.31;;;2.30;68.93
6514;BME280;3290;47.716;9.070;2023-02-28T09:28:14;97469.97;;;2.13;68.95
6514;BME280;3290;47.716;9.070;2023-02-28T09:30:48;97472.38;;;2.32;69.15
6514;BME280;3290;47.716;9.070;2023-02-28T09:33:14;97461.00;;;2.42;68.11
6514;BME280;3290;47.716;9.070;2023-02-28T09:35:40;97463.88;;;2.39;68.71
6514;BME280;3290;47.716;9.070;2023-02-28T09:38:06;97459.78;;;2.54;69.00
6514;BME280;3290;47.716;9.070;2023-02-28T09:40:36;97454.59;;;2.79;67.51
6514;BME280;3290;47.716;9.070;2023-02-28T09:43:02;97459.16;;;2.60;67.63
6514;BME280;3290;47.716;9.070;2023-02-28T09:45:32;97470.78;;;2.31;68.70
6514;BME280;3290;47.716;9.070;2023-02-28T09:48:00;97471.84;;;2.46;68.98
6514;BME280;3290;47.716;9.070;2023-02-28T09:53:03;97485.66;;;2.54;67.81
6514;BME280;3290;47.716;9.070;2023-02-28T09:56:00;97490.22;;;2.43;68.85
6514;BME280;3290;47.716;9.070;2023-02-28T10:01:03;97493.91;;;2.15;69.97
6514;BME280;3290;47.716;9.070;2023-02-28T10:03:46;97492.41;;;2.30;69.32
6514;BME280;3290;47.716;9.070;2023-02-28T10:06:20;97490.50;;;2.15;69.18
6514;BME280;3290;47.716;9.070;2023-02-28T10:09:02;97490.34;;;2.16;70.35
6514;BME280;3290;47.716;9.070;2023-02-28T10:11:29;97491.06;;;2.43;69.03
6514;BME280;3290;47.716;9.070;2023-02-28T10:14:12;97488.66;;;2.50;69.69
6514;BME280;3290;47.716;9.070;2023-02-28T10:16:59;97492.03;;;2.68;69.07
6514;BME280;3290;47.716;9.070;2023-02-28T10:22:38;97495.38;;;2.00;69.88
6514;BME280;3290;47.716;9.070;2023-02-28T10:25:18;97503.44;;;2.82;68.46
6514;BME280;3290;47.716;9.070;2023-02-28T10:27:43;97506.19;;;2.81;67.85
6514;BME280;3290;47.716;9.070;2023-02-28T10:30:10;97510.88;;;3.11;67.13
6514;BME280;3290;47.716;9.070;2023-02-28T10:32:38;97512.78;;;2.76;68.08
6514;BME280;3290;47.716;9.070;2023-02-28T10:35:17;97519.66;;;2.42;68.70
6514;BME280;3290;47.716;9.070;2023-02-28T10:37:46;97510.25;;;2.41;69.74
6514;BME280;3290;47.716;9.070;2023-02-28T10:45:38;97510.28;;;2.91;67.48
6514;BME280;3290;47.716;9.070;2023-02-28T10:48:05;97506.47;;;2.78;67.54
6514;BME280;3290;47.716;9.070;2023-02-28T11:01:23;97516.31;;;2.75;68.10
6514;BME280;3290;47.716;9.070;2023-02-28T11:03:50;97514.63;;;2.66;67.83
6514;BME280;3290;47.716;9.070;2023-02-28T11:06:19;97513.09;;;3.06;67.04
6514;BME280;3290;47.716;9.070;2023-02-28T11:08:51;97518.84;;;2.92;67.14
6514;BME280;3290;47.716;9.070;2023-02-28T11:11:18;97518.38;;;2.71;68.51
6514;BME280;3290;47.716;9.070;2023-02-28T11:13:46;97509.50;;;2.99;66.74
6514;BME280;3290;47.716;9.070;2023-02-28T11:16:14;97518.28;;;3.06;66.15
6514;BME280;3290;47.716;9.070;2023-02-28T11:21:09;97517.00;;;2.77;67.35
6514;BME280;3290;47.716;9.070;2023-02-28T11:23:41;97506.31;;;2.79;67.47
6514;BME280;3290;47.716;9.070;2023-02-28T11:26:07;97499.38;;;3.13;66.13
6514;BME280;3290;47.716;9.070;2023-02-28T11:28:40;97503.25;;;3.01;66.79
6514;BME280;3290;47.716;9.070;2023-02-28T11:31:16;97501.03;;;3.14;66.73
6514;BME280;3290;47.716;9.070;2023-02-28T11:36:24;97488.56;;;3.51;66.04
6514;BME280;3290;47.716;9.070;2023-02-28T11:38:51;97489.00;;;3.38;66.50
6514;BME280;3290;47.716;9.070;2023-02-28T11:46:58;97493.44;;;2.87;68.25
6514;BME280;3290;47.716;9.070;2023-02-28T11:49:34;97496.66;;;3.15;68.26
6514;BME280;3290;47.716;9.070;2023-02-28T11:52:21;97491.44;;;3.48;66.77
6514;BME280;3290;47.716;9.070;2023-02-28T12:03:18;97491.59;;;3.46;66.40
6514;BME280;3290;47.716;9.070;2023-02-28T12:05:51;97495.56;;;3.17;67.25
6514;BME280;3290;47.716;9.070;2023-02-28T12:08:31;97494.78;;;3.73;66.22
6514;BME280;3290;47.716;9.070;2023-02-28T12:11:25;97491.34;;;3.65;66.22
6514;BME280;3290;47.716;9.070;2023-02-28T12:17:29;97493.13;;;3.64;69.83
6514;BME280;3290;47.716;9.070;2023-02-28T12:27:24;97485.63;;;3.38;67.17
6514;BME280;3290;47.716;9.070;2023-02-28T12:33:08;97494.97;;;3.31;67.77
6514;BME280;3290;47.716;9.070;2023-02-28T12:35:47;97485.97;;;3.58;66.68
6514;BME280;3290;47.716;9.070;2023-02-28T12:38:20;97479.41;;;3.88;66.12
6514;BME280;3290;47.716;9.070;2023-02-28T12:40:57;97480.25;;;3.96;65.67
6514;BME280;3290;47.716;9.070;2023-02-28T12:43:32;97476.34;;;3.92;65.80
6514;BME280;3290;47.716;9.070;2023-02-28T12:46:07;97473.84;;;3.67;66.71
6514;BME280;3290;47.716;9.070;2023-02-28T12:48:45;97474.22;;;3.80;65.66
6514;BME280;3290;47.716;9.070;2023-02-28T12:51:12;97476.56;;;3.50;66.23
6514;BME280;3290;47.716;9.070;2023-02-28T12:56:17;97479.19;;;3.65;66.57
6514;BME280;3290;47.716;9.070;2023-02-28T12:58:53;97463.41;;;4.08;67.57
6514;BME280;3290;47.716;9.070;2023-02-28T13:09:56;97473.78;;;4.08;65.39
6514;BME280;3290;47.716;9.070;2023-02-28T13:12:23;97465.31;;;3.90;65.10
6514;BME280;3290;47.716;9.070;2023-02-28T13:14:49;97463.06;;;3.95;65.38
6514;BME280;3290;47.716;9.070;2023-02-28T13:17:22;97472.16;;;4.15;65.10
6514;BME280;3290;47.716;9.070;2023-02-28T13:24:57;97468.41;;;4.09;65.23
6514;BME280;3290;47.716;9.070;2023-02-28T13:27:32;97472.91;;;3.68;67.02
6514;BME280;3290;47.716;9.070;2023-02-28T13:29:59;97467.75;;;4.07;65.76
6514;BME280;3290;47.716;9.070;2023-02-28T13:39:47;97483.19;;;4.33;65.15
6514;BME280;3290;47.716;9.070;2023-02-28T13:42:31;97484.13;;;4.00;66.08
6514;BME280;3290;47.716;9.070;2023-02-28T13:55:31;97491.28;;;4.14;65.61
6514;BME280;3290;47.716;9.070;2023-02-28T14:01:41;97488.78;;;3.81;66.64
6514;BME280;3290;47.716;9.070;2023-02-28T14:06:40;97491.34;;;3.65;67.01
6514;BME280;3290;47.716;9.070;2023-02-28T14:09:31;97492.78;;;3.59;67.18
6514;BME280;3290;47.716;9.070;2023-02-28T14:13:10;97489.13;;;3.86;65.93
6514;BME280;3290;47.716;9.070;2023-02-28T14:15:24;97497.38;;;3.97;66.75
6514;BME280;3290;47.716;9.070;2023-02-28T14:17:54;97488.31;;;3.85;66.57
6514;BME280;3290;47.716;9.070;2023-02-28T14:20:22;97488.00;;;3.80;66.42
6514;BME280;3290;47.716;9.070;2023-02-28T14:23:02;97495.91;;;3.87;66.75
6514;BME280;3290;47.716;9.070;2023-02-28T14:25:54;97492.84;;;3.91;66.65
6514;BME280;3290;47.716;9.070;2023-02-28T14:31:17;97484.41;;;3.73;66.84
6514;BME280;3290;47.716;9.070;2023-02-28T14:34:14;97484.69;;;3.55;66.49
6514;BME280;3290;47.716;9.070;2023-02-28T14:36:45;97482.72;;;3.57;66.59
6514;BME280;3290;47.716;9.070;2023-02-28T14:39:13;97485.22;;;3.66;66.41
6514;BME280;3290;47.716;9.070;2023-02-28T14:41:42;97484.94;;;3.93;66.66
6514;BME280;3290;47.716;9.070;2023-02-28T14:44:20;97483.81;;;4.11;65.70
6514;BME280;3290;47.716;9.070;2023-02-28T14:46:48;97493.66;;;3.92;65.40
6514;BME280;3290;47.716;9.070;2023-02-28T14:49:27;97487.22;;;4.35;64.05
6514;BME280;3290;47.716;9.070;2023-02-28T14:54:37;97481.97;;;5.44;61.41
6514;BME280;3290;47.716;9.070;2023-02-28T14:57:03;97485.75;;;5.34;60.45
6514;BME280;3290;47.716;9.070;2023-02-28T14:59:33;97485.59;;;5.65;59.50
6514;BME280;3290;47.716;9.070;2023-02-28T15:02:18;97485.69;;;5.72;59.56
6514;BME280;3290;47.716;9.070;2023-02-28T15:04:54;97489.81;;;6.41;57.91
6514;BME280;3290;47.716;9.070;2023-02-28T15:07:20;97496.59;;;6.50;56.31
6514;BME280;3290;47.716;9.070;2023-02-28T15:10:25;97489.84;;;6.78;56.11
6514;BME280;3290;47.716;9.070;2023-02-28T15:13:30;97489.72;;;6.35;56.66
6514;BME280;3290;47.716;9.070;2023-02-28T15:16:04;97494.03;;;5.97;56.99
6514;BME280;3290;47.716;9.070;2023-02-28T15:21:34;97493.56;;;6.38;56.22
6514;BME280;3290;47.716;9.070;2023-02-28T15:26:51;97492.44;;;6.41;56.05
6514;BME280;3290;47.716;9.070;2023-02-28T15:29:20;97497.97;;;6.38;55.65
6514;BME280;3290;47.716;9.070;2023-02-28T15:31:55;97488.50;;;6.00;57.47
6514;BME280;3290;47.716;9.070;2023-02-28T15:34:34;97491.16;;;6.15;57.00
6514;BME280;3290;47.716;9.070;2023-02-28T15:37:00;97495.84;;;6.41;56.34
6514;BME280;3290;47.716;9.070;2023-02-28T15:39:28;97492.66;;;6.09;57.78
6514;BME280;3290;47.716;9.070;2023-02-28T15:42:11;97499.25;;;6.20;56.72
6514;BME280;3290;47.716;9.070;2023-02-28T15:44:36;97492.19;;;6.28;56.64
6514;BME280;3290;47.716;9.070;2023-02-28T15:47:04;97496.19;;;6.16;56.40
6514;BME280;3290;47.716;9.070;2023-02-28T15:49:54;97499.69;;;6.68;55.65
6514;BME280;3290;47.716;9.070;2023-02-28T15:52:27;97494.94;;;6.71;56.56
6514;BME280;3290;47.716;9.070;2023-02-28T15:54:57;97493.97;;;6.50;56.80
6514;BME280;3290;47.716;9.070;2023-02-28T15:57:28;97486.25;;;5.97;56.64
6514;BME280;3290;47.716;9.070;2023-02-28T16:00:01;97490.84;;;5.88;57.73
6514;BME280;3290;47.716;9.070;2023-02-28T16:02:32;97486.50;;;5.80;58.03
6514;BME280;3290;47.716;9.070;2023-02-28T16:07:54;97489.00;;;5.66;58.62
6514;BME280;3290;47.716;9.070;2023-02-28T16:10:21;97491.91;;;5.63;58.97